Time;durP1;ratioP1;P1;durP2;ratioP2;P2;SDS_P1;SDS_P2;PMS_P1;PMS_P2;Temp;Humidity;BMP_temperature;BMP_pressure;BME280_temperature;BME280_humidity;BME280_pressure;Samples;Min_cycle;Max_cycle;Signal;HPM_P1;HPM_P2
2019/08/19 00:00:29;;;;;;;5.85;5.3;;;;;;;19.77;88.32129;95086.5;;;;
2019/08/19 00:01:36;;;;;;;5.85;5.3;;;;;;;19.77;88.32129;95086.5;;;;
2019/08/19 00:02:38;;;;;;;5.85;5.3;;;;;;;19.77;88.32129;95086.5;;;;
2019/08/19 00:03:40;;;;;;;5.85;5.3;;;;;;;19.77;88.32129;95086.5;;;;
2019/08/19 00:04:42;;;;;;;6.25;5.649999;;;;;;;20.06;86.37305;95126.08;;;;
2019/08/19 00:05:43;;;;;;;6.25;5.649999;;;;;;;20.06;86.37305;95126.08;;;;
2019/08/19 00:06:46;;;;;;;6.349999;5.500001;;;;;;;20.19;87.3252;95139.45;;;;
2019/08/19 00:07:47;;;;;;;6.349999;5.500001;;;;;;;20.19;87.3252;95139.45;;;;
2019/08/19 00:08:49;;;;;;;6.349999;5.500001;;;;;;;20.19;87.3252;95139.45;;;;
2019/08/19 00:09:50;;;;;;;6.349999;5.500001;;;;;;;20.19;87.3252;95139.45;;;;
2019/08/19 00:10:52;;;;;;;6.349999;5.500001;;;;;;;20.19;87.3252;95139.45;;;;
2019/08/19 00:11:53;;;;;;;6.349999;5.500001;;;;;;;20.19;87.3252;95139.45;;;;
2019/08/19 00:12:55;;;;;;;6.349999;5.500001;;;;;;;20.19;87.3252;95139.45;;;;
2019/08/19 00:13:56;;;;;;;6.349999;5.500001;;;;;;;20.19;87.3252;95139.45;;;;
2019/08/19 00:14:58;;;;;;;6.349999;5.500001;;;;;;;20.19;87.3252;95139.45;;;;
2019/08/19 00:16:00;;;;;;;6.349999;5.500001;;;;;;;20.19;87.3252;95139.45;;;;
2019/08/19 00:17:03;;;;;;;6.349999;5.500001;;;;;;;20.19;87.3252;95139.45;;;;
2019/08/19 00:18:05;;;;;;;5.9;5.299999;;;;;;;20.5;86.07715;95198.58;;;;
2019/08/19 00:19:06;;;;;;;5.9;5.299999;;;;;;;20.5;86.07715;95198.58;;;;
2019/08/19 00:20:08;;;;;;;5.649999;4.8;;;;;;;20.63;87.18262;95197.41;;;;
2019/08/19 00:21:11;;;;;;;5.649999;4.8;;;;;;;20.63;87.18262;95197.41;;;;
2019/08/19 00:22:13;;;;;;;5.649999;4.8;;;;;;;20.63;87.18262;95197.41;;;;
2019/08/19 00:23:14;;;;;;;5.649999;4.8;;;;;;;20.63;87.18262;95197.41;;;;
2019/08/19 00:24:16;;;;;;;5.649999;4.8;;;;;;;20.63;87.18262;95197.41;;;;
2019/08/19 00:25:18;;;;;;;5.649999;4.8;;;;;;;20.63;87.18262;95197.41;;;;
2019/08/19 00:26:20;;;;;;;5.649999;4.8;;;;;;;20.63;87.18262;95197.41;;;;
2019/08/19 00:27:21;;;;;;;5.649999;4.8;;;;;;;20.63;87.18262;95197.41;;;;
2019/08/19 00:28:22;;;;;;;5.649999;4.8;;;;;;;20.63;87.18262;95197.41;;;;
2019/08/19 00:29:25;;;;;;;5.649999;4.8;;;;;;;20.63;87.18262;95197.41;;;;
2019/08/19 00:30:27;;;;;;;5.600001;4.05;;;;;;;20.75;86.00391;95264.97;;;;
2019/08/19 00:31:28;;;;;;;5.600001;4.05;;;;;;;20.75;86.00391;95264.97;;;;
2019/08/19 00:32:30;;;;;;;5.600001;4.05;;;;;;;20.75;86.00391;95264.97;;;;
2019/08/19 00:33:32;;;;;;;5.600001;4.05;;;;;;;20.75;86.00391;95264.97;;;;
2019/08/19 00:34:33;;;;;;;5.600001;4.05;;;;;;;20.75;86.00391;95264.97;;;;
2019/08/19 00:35:34;;;;;;;5.600001;4.05;;;;;;;20.75;86.00391;95264.97;;;;
2019/08/19 00:36:36;;;;;;;5.600001;4.05;;;;;;;20.75;86.00391;95264.97;;;;
2019/08/19 00:37:37;;;;;;;5.600001;4.05;;;;;;;20.75;86.00391;95264.97;;;;
2019/08/19 00:38:38;;;;;;;5.600001;4.05;;;;;;;20.75;86.00391;95264.97;;;;
2019/08/19 00:39:40;;;;;;;5.600001;4.05;;;;;;;20.75;86.00391;95264.97;;;;
2019/08/19 00:40:41;;;;;;;5.600001;4.05;;;;;;;20.75;86.00391;95264.97;;;;
2019/08/19 00:41:43;;;;;;;4.4;3.05;;;;;;;20.64;85.21875;95395.76;;;;
2019/08/19 00:42:44;;;;;;;4.4;3.05;;;;;;;20.64;85.21875;95395.76;;;;
2019/08/19 00:43:45;;;;;;;4.4;3.05;;;;;;;20.64;85.21875;95395.76;;;;
2019/08/19 00:44:47;;;;;;;4.4;3.05;;;;;;;20.64;85.21875;95395.76;;;;
2019/08/19 00:45:48;;;;;;;4.4;3.05;;;;;;;20.64;85.21875;95395.76;;;;
2019/08/19 00:47:00;;;;;;;4.4;3.05;;;;;;;20.64;85.21875;95395.76;;;;
2019/08/19 00:48:01;;;;;;;4.4;3.05;;;;;;;20.64;85.21875;95395.76;;;;
2019/08/19 00:49:04;;;;;;;4.4;3.05;;;;;;;20.64;85.21875;95395.76;;;;
2019/08/19 00:50:05;;;;;;;4.4;3.05;;;;;;;20.64;85.21875;95395.76;;;;
2019/08/19 00:51:09;;;;;;;4.4;3.05;;;;;;;20.64;85.21875;95395.76;;;;
2019/08/19 00:52:11;;;;;;;5.599999;3.15;;;;;;;19.41;86.25879;95379.24;;;;
2019/08/19 00:53:13;;;;;;;5.599999;3.15;;;;;;;19.41;86.25879;95379.24;;;;
2019/08/19 00:54:14;;;;;;;5.599999;3.15;;;;;;;19.41;86.25879;95379.24;;;;
2019/08/19 00:55:15;;;;;;;5.599999;3.15;;;;;;;19.41;86.25879;95379.24;;;;
2019/08/19 00:56:18;;;;;;;5.599999;3.15;;;;;;;19.41;86.25879;95379.24;;;;
2019/08/19 00:57:20;;;;;;;5.599999;3.15;;;;;;;19.41;86.25879;95379.24;;;;
2019/08/19 00:58:21;;;;;;;5.599999;3.15;;;;;;;19.41;86.25879;95379.24;;;;
2019/08/19 00:59:22;;;;;;;5.599999;3.15;;;;;;;19.41;86.25879;95379.24;;;;
2019/08/19 01:00:24;;;;;;;5.599999;3.15;;;;;;;19.41;86.25879;95379.24;;;;
2019/08/19 01:01:32;;;;;;;5.599999;3.15;;;;;;;19.41;86.25879;95379.24;;;;
2019/08/19 01:02:35;;;;;;;4.7;3.1;;;;;;;18.6;88.27344;95329.97;;;;
2019/08/19 01:03:37;;;;;;;4.7;3.1;;;;;;;18.6;88.27344;95329.97;;;;
2019/08/19 01:04:39;;;;;;;4.7;3.1;;;;;;;18.6;88.27344;95329.97;;;;
2019/08/19 01:05:40;;;;;;;4.7;3.1;;;;;;;18.6;88.27344;95329.97;;;;
2019/08/19 01:06:45;;;;;;;4.7;3.1;;;;;;;18.6;88.27344;95329.97;;;;
2019/08/19 01:07:46;;;;;;;4.7;3.1;;;;;;;18.6;88.27344;95329.97;;;;
2019/08/19 01:08:49;;;;;;;4.7;3.1;;;;;;;18.6;88.27344;95329.97;;;;
2019/08/19 01:09:50;;;;;;;4.7;3.1;;;;;;;18.6;88.27344;95329.97;;;;
2019/08/19 01:10:54;;;;;;;4.7;3.1;;;;;;;18.6;88.27344;95329.97;;;;
2019/08/19 01:11:55;;;;;;;4.7;3.1;;;;;;;18.6;88.27344;95329.97;;;;
2019/08/19 01:12:57;;;;;;;4.6;3.1;;;;;;;18.04;89.44238;95316.22;;;;
2019/08/19 01:13:59;;;;;;;4.6;3.1;;;;;;;18.04;89.44238;95316.22;;;;
2019/08/19 01:15:01;;;;;;;4.6;3.1;;;;;;;18.04;89.44238;95316.22;;;;
2019/08/19 01:16:05;;;;;;;4.75;3.15;;;;;;;18;92.7373;95309.67;;;;
2019/08/19 01:17:07;;;;;;;4.75;3.15;;;;;;;18;92.7373;95309.67;;;;
2019/08/19 01:18:09;;;;;;;4.75;3.15;;;;;;;18;92.7373;95309.67;;;;
2019/08/19 01:19:13;;;;;;;4.75;3.15;;;;;;;18;92.7373;95309.67;;;;
2019/08/19 01:20:15;;;;;;;4.75;3.15;;;;;;;18;92.7373;95309.67;;;;
2019/08/19 01:21:20;;;;;;;4.75;3.15;;;;;;;18;92.7373;95309.67;;;;
2019/08/19 01:22:23;;;;;;;4.75;3.15;;;;;;;18;92.7373;95309.67;;;;
2019/08/19 01:23:24;;;;;;;4.75;3.15;;;;;;;18;92.7373;95309.67;;;;
2019/08/19 01:24:26;;;;;;;4.75;3.15;;;;;;;18;92.7373;95309.67;;;;
2019/08/19 01:25:27;;;;;;;4.75;3.15;;;;;;;18;92.7373;95309.67;;;;
2019/08/19 01:26:29;;;;;;;4.799999;3.1;;;;;;;17.7;92.80469;95364.03;;;;
2019/08/19 01:27:30;;;;;;;4.799999;3.1;;;;;;;17.7;92.80469;95364.03;;;;
2019/08/19 01:28:31;;;;;;;4.799999;3.1;;;;;;;17.7;92.80469;95364.03;;;;
2019/08/19 01:29:33;;;;;;;4.799999;3.1;;;;;;;17.7;92.80469;95364.03;;;;
2019/08/19 01:30:34;;;;;;;4.799999;3.1;;;;;;;17.7;92.80469;95364.03;;;;
2019/08/19 01:31:37;;;;;;;4.799999;3.1;;;;;;;17.7;92.80469;95364.03;;;;
2019/08/19 01:32:39;;;;;;;4.799999;3.1;;;;;;;17.7;92.80469;95364.03;;;;
2019/08/19 01:33:41;;;;;;;4.799999;3.1;;;;;;;17.7;92.80469;95364.03;;;;
2019/08/19 01:34:42;;;;;;;4.799999;3.1;;;;;;;17.7;92.80469;95364.03;;;;
2019/08/19 01:35:44;;;;;;;4.799999;3.1;;;;;;;17.7;92.80469;95364.03;;;;
2019/08/19 01:36:45;;;;;;;4.4;2.95;;;;;;;17.59;93.58105;95393.28;;;;
2019/08/19 01:37:47;;;;;;;4.4;2.95;;;;;;;17.59;93.58105;95393.28;;;;
2019/08/19 01:38:49;;;;;;;4.4;2.95;;;;;;;17.59;93.58105;95393.28;;;;
2019/08/19 01:39:51;;;;;;;4.4;2.95;;;;;;;17.59;93.58105;95393.28;;;;
2019/08/19 01:40:53;;;;;;;4.4;2.95;;;;;;;17.59;93.58105;95393.28;;;;
2019/08/19 01:41:55;;;;;;;4.4;2.95;;;;;;;17.59;93.58105;95393.28;;;;
2019/08/19 01:42:57;;;;;;;4.4;2.95;;;;;;;17.59;93.58105;95393.28;;;;
2019/08/19 01:43:58;;;;;;;4.4;2.95;;;;;;;17.59;93.58105;95393.28;;;;
2019/08/19 01:45:00;;;;;;;4.4;2.95;;;;;;;17.59;93.58105;95393.28;;;;
2019/08/19 01:46:01;;;;;;;4.4;2.95;;;;;;;17.59;93.58105;95393.28;;;;
2019/08/19 01:47:04;;;;;;;4.4;2.95;;;;;;;17.59;93.58105;95393.28;;;;
2019/08/19 01:48:05;;;;;;;3.7;2.95;;;;;;;17.47;94.68164;95366.8;;;;
2019/08/19 01:49:07;;;;;;;3.7;2.95;;;;;;;17.47;94.68164;95366.8;;;;
2019/08/19 01:50:08;;;;;;;3.7;2.95;;;;;;;17.47;94.68164;95366.8;;;;
2019/08/19 01:51:10;;;;;;;3.7;2.95;;;;;;;17.47;94.68164;95366.8;;;;
2019/08/19 01:52:12;;;;;;;3.7;2.95;;;;;;;17.47;94.68164;95366.8;;;;
2019/08/19 01:53:13;;;;;;;3.7;2.95;;;;;;;17.47;94.68164;95366.8;;;;
2019/08/19 01:54:15;;;;;;;3.7;2.95;;;;;;;17.47;94.68164;95366.8;;;;
2019/08/19 01:55:16;;;;;;;3.7;2.95;;;;;;;17.47;94.68164;95366.8;;;;
2019/08/19 01:56:18;;;;;;;3.7;2.95;;;;;;;17.47;94.68164;95366.8;;;;
2019/08/19 01:57:21;;;;;;;3.7;2.95;;;;;;;17.47;94.68164;95366.8;;;;
2019/08/19 01:58:22;;;;;;;5.45;4;;;;;;;17.45;96.23047;95398.19;;;;
2019/08/19 01:59:26;;;;;;;5.45;4;;;;;;;17.45;96.23047;95398.19;;;;
2019/08/19 02:00:27;;;;;;;5.45;4;;;;;;;17.45;96.23047;95398.19;;;;
2019/08/19 02:01:36;;;;;;;5.45;4;;;;;;;17.45;96.23047;95398.19;;;;
2019/08/19 02:02:37;;;;;;;5.45;4;;;;;;;17.45;96.23047;95398.19;;;;
2019/08/19 02:03:39;;;;;;;5.45;4;;;;;;;17.45;96.23047;95398.19;;;;
2019/08/19 02:04:42;;;;;;;5.45;4;;;;;;;17.45;96.23047;95398.19;;;;
2019/08/19 02:05:44;;;;;;;5.45;4;;;;;;;17.45;96.23047;95398.19;;;;
2019/08/19 02:06:46;;;;;;;5.45;4;;;;;;;17.45;96.23047;95398.19;;;;
2019/08/19 02:07:48;;;;;;;5.45;4;;;;;;;17.45;96.23047;95398.19;;;;
2019/08/19 02:08:49;;;;;;;4.6;3.8;;;;;;;17.42;97.37988;95336.35;;;;
2019/08/19 02:09:51;;;;;;;4.6;3.8;;;;;;;17.42;97.37988;95336.35;;;;
2019/08/19 02:10:53;;;;;;;4.6;3.8;;;;;;;17.42;97.37988;95336.35;;;;
2019/08/19 02:11:56;;;;;;;4.6;3.8;;;;;;;17.42;97.37988;95336.35;;;;
2019/08/19 02:12:58;;;;;;;4.6;3.8;;;;;;;17.42;97.37988;95336.35;;;;
2019/08/19 02:14:00;;;;;;;4.6;3.8;;;;;;;17.42;97.37988;95336.35;;;;
2019/08/19 02:15:02;;;;;;;4.6;3.8;;;;;;;17.42;97.37988;95336.35;;;;
2019/08/19 02:16:11;;;;;;;4.6;3.8;;;;;;;17.42;97.37988;95336.35;;;;
2019/08/19 02:17:13;;;;;;;4.6;3.8;;;;;;;17.42;97.37988;95336.35;;;;
2019/08/19 02:18:14;;;;;;;4.6;3.8;;;;;;;17.42;97.37988;95336.35;;;;
2019/08/19 02:19:16;;;;;;;5.35;3.95;;;;;;;17.43;98.40723;95306.99;;;;
2019/08/19 02:20:18;;;;;;;5.35;3.95;;;;;;;17.43;98.40723;95306.99;;;;
2019/08/19 02:21:31;;;;;;;5.35;3.95;;;;;;;17.43;98.40723;95306.99;;;;
2019/08/19 02:22:32;;;;;;;5.35;3.95;;;;;;;17.43;98.40723;95306.99;;;;
2019/08/19 02:23:33;;;;;;;5.35;3.95;;;;;;;17.43;98.40723;95306.99;;;;
2019/08/19 02:24:35;;;;;;;5.35;3.95;;;;;;;17.43;98.40723;95306.99;;;;
2019/08/19 02:25:37;;;;;;;5.35;3.95;;;;;;;17.43;98.40723;95306.99;;;;
2019/08/19 02:26:39;;;;;;;5.35;3.95;;;;;;;17.43;98.40723;95306.99;;;;
2019/08/19 02:27:40;;;;;;;5.35;3.95;;;;;;;17.43;98.40723;95306.99;;;;
2019/08/19 02:28:41;;;;;;;5.35;3.95;;;;;;;17.43;98.40723;95306.99;;;;
2019/08/19 02:29:46;;;;;;;7.1;4.3;;;;;;;17.39;99.83398;95329.14;;;;
2019/08/19 02:30:47;;;;;;;7.1;4.3;;;;;;;17.39;99.83398;95329.14;;;;
2019/08/19 02:31:49;;;;;;;7.1;4.3;;;;;;;17.39;99.83398;95329.14;;;;
2019/08/19 02:32:50;;;;;;;7.1;4.3;;;;;;;17.39;99.83398;95329.14;;;;
2019/08/19 02:33:52;;;;;;;7.1;4.3;;;;;;;17.39;99.83398;95329.14;;;;
2019/08/19 02:34:53;;;;;;;7.1;4.3;;;;;;;17.39;99.83398;95329.14;;;;
2019/08/19 02:35:54;;;;;;;7.1;4.3;;;;;;;17.39;99.83398;95329.14;;;;
2019/08/19 02:36:55;;;;;;;7.1;4.3;;;;;;;17.39;99.83398;95329.14;;;;
2019/08/19 02:37:57;;;;;;;7.1;4.3;;;;;;;17.39;99.83398;95329.14;;;;
2019/08/19 02:38:58;;;;;;;7.1;4.3;;;;;;;17.39;99.83398;95329.14;;;;
2019/08/19 02:39:59;;;;;;;7.1;4.3;;;;;;;17.39;99.83398;95329.14;;;;
2019/08/19 02:41:01;;;;;;;5.95;3.85;;;;;;;17.38;100;95306.22;;;;
2019/08/19 02:42:03;;;;;;;5.95;3.85;;;;;;;17.38;100;95306.22;;;;
2019/08/19 02:43:05;;;;;;;5.95;3.85;;;;;;;17.38;100;95306.22;;;;
2019/08/19 02:44:06;;;;;;;5.95;3.85;;;;;;;17.38;100;95306.22;;;;
2019/08/19 02:45:08;;;;;;;5.95;3.85;;;;;;;17.38;100;95306.22;;;;
2019/08/19 02:46:10;;;;;;;5.95;3.85;;;;;;;17.38;100;95306.22;;;;
2019/08/19 02:47:12;;;;;;;5.95;3.85;;;;;;;17.38;100;95306.22;;;;
2019/08/19 02:48:13;;;;;;;5.95;3.85;;;;;;;17.38;100;95306.22;;;;
2019/08/19 02:49:15;;;;;;;5.95;3.85;;;;;;;17.38;100;95306.22;;;;
2019/08/19 02:50:16;;;;;;;5.95;3.85;;;;;;;17.38;100;95306.22;;;;
2019/08/19 02:51:18;;;;;;;5;4;;;;;;;17.3;100;95304.05;;;;
2019/08/19 02:52:19;;;;;;;5;4;;;;;;;17.3;100;95304.05;;;;
2019/08/19 02:53:20;;;;;;;5;4;;;;;;;17.3;100;95304.05;;;;
2019/08/19 02:54:22;;;;;;;5;4;;;;;;;17.3;100;95304.05;;;;
2019/08/19 02:55:23;;;;;;;5;4;;;;;;;17.3;100;95304.05;;;;
2019/08/19 02:56:24;;;;;;;5;4;;;;;;;17.3;100;95304.05;;;;
2019/08/19 02:57:26;;;;;;;5;4;;;;;;;17.3;100;95304.05;;;;
2019/08/19 02:58:27;;;;;;;5;4;;;;;;;17.3;100;95304.05;;;;
2019/08/19 02:59:28;;;;;;;5;4;;;;;;;17.3;100;95304.05;;;;
2019/08/19 03:00:29;;;;;;;5;4;;;;;;;17.3;100;95304.05;;;;
2019/08/19 03:01:34;;;;;;;4.300001;3.900001;;;;;;;17.28;100;95292.58;;;;
2019/08/19 03:02:35;;;;;;;4.300001;3.900001;;;;;;;17.28;100;95292.58;;;;
2019/08/19 03:03:36;;;;;;;4.300001;3.900001;;;;;;;17.28;100;95292.58;;;;
2019/08/19 03:04:38;;;;;;;4.300001;3.900001;;;;;;;17.28;100;95292.58;;;;
2019/08/19 03:05:39;;;;;;;4.300001;3.900001;;;;;;;17.28;100;95292.58;;;;
2019/08/19 03:06:41;;;;;;;4.300001;3.900001;;;;;;;17.28;100;95292.58;;;;
2019/08/19 03:07:42;;;;;;;4.300001;3.900001;;;;;;;17.28;100;95292.58;;;;
2019/08/19 03:08:43;;;;;;;4.300001;3.900001;;;;;;;17.28;100;95292.58;;;;
2019/08/19 03:09:45;;;;;;;4.300001;3.900001;;;;;;;17.28;100;95292.58;;;;
2019/08/19 03:10:46;;;;;;;4.300001;3.900001;;;;;;;17.28;100;95292.58;;;;
2019/08/19 03:11:47;;;;;;;4.300001;3.900001;;;;;;;17.28;100;95292.58;;;;
2019/08/19 03:12:48;;;;;;;4;3.7;;;;;;;17.18;100;95292.47;;;;
2019/08/19 03:13:50;;;;;;;4;3.7;;;;;;;17.18;100;95292.47;;;;
2019/08/19 03:14:51;;;;;;;4;3.7;;;;;;;17.18;100;95292.47;;;;
2019/08/19 03:15:52;;;;;;;4;3.7;;;;;;;17.18;100;95292.47;;;;
2019/08/19 03:17:03;;;;;;;4;3.7;;;;;;;17.18;100;95292.47;;;;
2019/08/19 03:18:05;;;;;;;4;3.7;;;;;;;17.18;100;95292.47;;;;
2019/08/19 03:19:07;;;;;;;4;3.7;;;;;;;17.18;100;95292.47;;;;
2019/08/19 03:20:08;;;;;;;4;3.7;;;;;;;17.18;100;95292.47;;;;
2019/08/19 03:21:10;;;;;;;4;3.7;;;;;;;17.18;100;95292.47;;;;
2019/08/19 03:22:11;;;;;;;4;3.7;;;;;;;17.18;100;95292.47;;;;
2019/08/19 03:23:12;;;;;;;4.85;3.95;;;;;;;17.19;100;95298.75;;;;
2019/08/19 03:24:14;;;;;;;4.85;3.95;;;;;;;17.19;100;95298.75;;;;
2019/08/19 03:25:15;;;;;;;4.85;3.95;;;;;;;17.19;100;95298.75;;;;
2019/08/19 03:26:17;;;;;;;4.85;3.95;;;;;;;17.19;100;95298.75;;;;
2019/08/19 03:27:19;;;;;;;4.85;3.95;;;;;;;17.19;100;95298.75;;;;
2019/08/19 03:28:20;;;;;;;4.85;3.95;;;;;;;17.19;100;95298.75;;;;
2019/08/19 03:29:22;;;;;;;4.85;3.95;;;;;;;17.19;100;95298.75;;;;
2019/08/19 03:30:23;;;;;;;4.85;3.95;;;;;;;17.19;100;95298.75;;;;
2019/08/19 03:31:41;;;;;;;4.85;3.95;;;;;;;17.19;100;95298.75;;;;
2019/08/19 03:32:42;;;;;;;4.85;3.95;;;;;;;17.19;100;95298.75;;;;
2019/08/19 03:33:44;;;;;;;5.15;3.85;;;;;;;17.12;100;95288.67;;;;
2019/08/19 03:34:45;;;;;;;5.15;3.85;;;;;;;17.12;100;95288.67;;;;
2019/08/19 03:35:46;;;;;;;5.15;3.85;;;;;;;17.12;100;95288.67;;;;
2019/08/19 03:36:47;;;;;;;5.15;3.85;;;;;;;17.12;100;95288.67;;;;
2019/08/19 03:37:48;;;;;;;5.15;3.85;;;;;;;17.12;100;95288.67;;;;
2019/08/19 03:38:50;;;;;;;5.15;3.85;;;;;;;17.12;100;95288.67;;;;
2019/08/19 03:39:51;;;;;;;5.15;3.85;;;;;;;17.12;100;95288.67;;;;
2019/08/19 03:40:52;;;;;;;5.15;3.85;;;;;;;17.12;100;95288.67;;;;
2019/08/19 03:41:53;;;;;;;5.15;3.85;;;;;;;17.12;100;95288.67;;;;
2019/08/19 03:42:55;;;;;;;5.15;3.85;;;;;;;17.12;100;95288.67;;;;
2019/08/19 03:43:56;;;;;;;4.45;4.05;;;;;;;17.16;100;95275.95;;;;
2019/08/19 03:44:57;;;;;;;4.45;4.05;;;;;;;17.16;100;95275.95;;;;
2019/08/19 03:45:58;;;;;;;4.45;4.05;;;;;;;17.16;100;95275.95;;;;
2019/08/19 03:46:59;;;;;;;4.45;4.05;;;;;;;17.16;100;95275.95;;;;
2019/08/19 03:48:01;;;;;;;4.45;4.05;;;;;;;17.16;100;95275.95;;;;
2019/08/19 03:49:03;;;;;;;4.45;4.05;;;;;;;17.16;100;95275.95;;;;
2019/08/19 03:50:05;;;;;;;4.45;4.05;;;;;;;17.16;100;95275.95;;;;
2019/08/19 03:51:08;;;;;;;4.45;4.05;;;;;;;17.16;100;95275.95;;;;
2019/08/19 03:52:09;;;;;;;4.45;4.05;;;;;;;17.16;100;95275.95;;;;
2019/08/19 03:53:10;;;;;;;4.45;4.05;;;;;;;17.16;100;95275.95;;;;
2019/08/19 03:54:11;;;;;;;4.45;4.05;;;;;;;17.16;100;95275.95;;;;
2019/08/19 03:55:12;;;;;;;4.299999;3.7;;;;;;;17.17;100;95283.61;;;;
2019/08/19 03:56:14;;;;;;;4.299999;3.7;;;;;;;17.17;100;95283.61;;;;
2019/08/19 03:57:15;;;;;;;4.299999;3.7;;;;;;;17.17;100;95283.61;;;;
2019/08/19 03:58:16;;;;;;;4.299999;3.7;;;;;;;17.17;100;95283.61;;;;
2019/08/19 03:59:18;;;;;;;4.299999;3.7;;;;;;;17.17;100;95283.61;;;;
2019/08/19 04:00:19;;;;;;;4.299999;3.7;;;;;;;17.17;100;95283.61;;;;
2019/08/19 04:01:33;;;;;;;4.299999;3.7;;;;;;;17.17;100;95283.61;;;;
2019/08/19 04:02:35;;;;;;;4.299999;3.7;;;;;;;17.17;100;95283.61;;;;
2019/08/19 04:03:36;;;;;;;4.299999;3.7;;;;;;;17.17;100;95283.61;;;;
2019/08/19 04:04:37;;;;;;;4.299999;3.7;;;;;;;17.17;100;95283.61;;;;
2019/08/19 04:05:38;;;;;;;4.349999;3.95;;;;;;;17.22;100;95282.22;;;;
2019/08/19 04:06:40;;;;;;;4.349999;3.95;;;;;;;17.22;100;95282.22;;;;
2019/08/19 04:07:41;;;;;;;4.349999;3.95;;;;;;;17.22;100;95282.22;;;;
2019/08/19 04:08:42;;;;;;;4.349999;3.95;;;;;;;17.22;100;95282.22;;;;
2019/08/19 04:09:43;;;;;;;4.349999;3.95;;;;;;;17.22;100;95282.22;;;;
2019/08/19 04:10:44;;;;;;;4.349999;3.95;;;;;;;17.22;100;95282.22;;;;
2019/08/19 04:11:46;;;;;;;4.349999;3.95;;;;;;;17.22;100;95282.22;;;;
2019/08/19 04:12:48;;;;;;;4.349999;3.95;;;;;;;17.22;100;95282.22;;;;
2019/08/19 04:13:49;;;;;;;4.349999;3.95;;;;;;;17.22;100;95282.22;;;;
2019/08/19 04:14:50;;;;;;;4.349999;3.95;;;;;;;17.22;100;95282.22;;;;
2019/08/19 04:15:51;;;;;;;7.45;3.75;;;;;;;17.22;100;95279.08;;;;
2019/08/19 04:16:52;;;;;;;7.45;3.75;;;;;;;17.22;100;95279.08;;;;
2019/08/19 04:17:54;;;;;;;7.45;3.75;;;;;;;17.22;100;95279.08;;;;
2019/08/19 04:18:55;;;;;;;7.45;3.75;;;;;;;17.22;100;95279.08;;;;
2019/08/19 04:19:56;;;;;;;7.45;3.75;;;;;;;17.22;100;95279.08;;;;
2019/08/19 04:20:57;;;;;;;7.45;3.75;;;;;;;17.22;100;95279.08;;;;
2019/08/19 04:21:58;;;;;;;7.45;3.75;;;;;;;17.22;100;95279.08;;;;
2019/08/19 04:22:59;;;;;;;7.45;3.75;;;;;;;17.22;100;95279.08;;;;
2019/08/19 04:24:01;;;;;;;7.45;3.75;;;;;;;17.22;100;95279.08;;;;
2019/08/19 04:25:02;;;;;;;7.45;3.75;;;;;;;17.22;100;95279.08;;;;
2019/08/19 04:26:04;;;;;;;7.45;3.75;;;;;;;17.22;100;95279.08;;;;
2019/08/19 04:27:06;;;;;;;6.1;4;;;;;;;17.28;100;95294.36;;;;
2019/08/19 04:28:07;;;;;;;6.1;4;;;;;;;17.28;100;95294.36;;;;
2019/08/19 04:29:09;;;;;;;6.1;4;;;;;;;17.28;100;95294.36;;;;
2019/08/19 04:30:10;;;;;;;6.1;4;;;;;;;17.28;100;95294.36;;;;
2019/08/19 04:31:13;;;;;;;6.1;4;;;;;;;17.28;100;95294.36;;;;
2019/08/19 04:32:14;;;;;;;6.1;4;;;;;;;17.28;100;95294.36;;;;
2019/08/19 04:33:16;;;;;;;6.1;4;;;;;;;17.28;100;95294.36;;;;
2019/08/19 04:34:17;;;;;;;6.1;4;;;;;;;17.28;100;95294.36;;;;
2019/08/19 04:35:18;;;;;;;6.1;4;;;;;;;17.28;100;95294.36;;;;
2019/08/19 04:36:20;;;;;;;6.1;4;;;;;;;17.28;100;95294.36;;;;
2019/08/19 04:37:21;;;;;;;5.05;3.9;;;;;;;17.27;100;95301.87;;;;
2019/08/19 04:38:22;;;;;;;5.05;3.9;;;;;;;17.27;100;95301.87;;;;
2019/08/19 04:39:23;;;;;;;5.05;3.9;;;;;;;17.27;100;95301.87;;;;
2019/08/19 04:40:24;;;;;;;5.05;3.9;;;;;;;17.27;100;95301.87;;;;
2019/08/19 04:41:25;;;;;;;5.05;3.9;;;;;;;17.27;100;95301.87;;;;
2019/08/19 04:42:27;;;;;;;5.05;3.9;;;;;;;17.27;100;95301.87;;;;
2019/08/19 04:43:28;;;;;;;5.05;3.9;;;;;;;17.27;100;95301.87;;;;
2019/08/19 04:44:29;;;;;;;5.05;3.9;;;;;;;17.27;100;95301.87;;;;
2019/08/19 04:45:30;;;;;;;5.05;3.9;;;;;;;17.27;100;95301.87;;;;
2019/08/19 04:46:40;;;;;;;5.05;3.9;;;;;;;17.27;100;95301.87;;;;
2019/08/19 04:47:41;;;;;;;4.5;3.85;;;;;;;17.31;100;95307.03;;;;
2019/08/19 04:48:42;;;;;;;4.5;3.85;;;;;;;17.31;100;95307.03;;;;
2019/08/19 04:49:43;;;;;;;4.5;3.85;;;;;;;17.31;100;95307.03;;;;
2019/08/19 04:50:44;;;;;;;4.5;3.85;;;;;;;17.31;100;95307.03;;;;
2019/08/19 04:51:46;;;;;;;4.5;3.85;;;;;;;17.31;100;95307.03;;;;
2019/08/19 04:52:47;;;;;;;4.5;3.85;;;;;;;17.31;100;95307.03;;;;
2019/08/19 04:53:48;;;;;;;4.5;3.85;;;;;;;17.31;100;95307.03;;;;
2019/08/19 04:54:49;;;;;;;4.5;3.85;;;;;;;17.31;100;95307.03;;;;
2019/08/19 04:55:50;;;;;;;4.5;3.85;;;;;;;17.31;100;95307.03;;;;
2019/08/19 04:56:51;;;;;;;4.5;3.85;;;;;;;17.31;100;95307.03;;;;
2019/08/19 04:57:53;;;;;;;4.5;3.85;;;;;;;17.31;100;95307.03;;;;
2019/08/19 04:58:54;;;;;;;4.45;3.6;;;;;;;17.3;100;95285.35;;;;
2019/08/19 04:59:55;;;;;;;4.45;3.6;;;;;;;17.3;100;95285.35;;;;
2019/08/19 05:00:56;;;;;;;4.45;3.6;;;;;;;17.3;100;95285.35;;;;
2019/08/19 05:01:57;;;;;;;4.45;3.6;;;;;;;17.3;100;95285.35;;;;
2019/08/19 05:02:58;;;;;;;4.45;3.6;;;;;;;17.3;100;95285.35;;;;
2019/08/19 05:03:59;;;;;;;4.45;3.6;;;;;;;17.3;100;95285.35;;;;
2019/08/19 05:05:01;;;;;;;4.45;3.6;;;;;;;17.3;100;95285.35;;;;
2019/08/19 05:06:03;;;;;;;4.45;3.6;;;;;;;17.3;100;95285.35;;;;
2019/08/19 05:07:04;;;;;;;4.45;3.6;;;;;;;17.3;100;95285.35;;;;
2019/08/19 05:08:05;;;;;;;4.45;3.6;;;;;;;17.3;100;95285.35;;;;
2019/08/19 05:09:06;;;;;;;4.3;3.65;;;;;;;17.33;100;95318.36;;;;
2019/08/19 05:10:09;;;;;;;4.3;3.65;;;;;;;17.33;100;95318.36;;;;
2019/08/19 05:11:10;;;;;;;4.3;3.65;;;;;;;17.33;100;95318.36;;;;
2019/08/19 05:12:11;;;;;;;4.3;3.65;;;;;;;17.33;100;95318.36;;;;
2019/08/19 05:13:13;;;;;;;4.3;3.65;;;;;;;17.33;100;95318.36;;;;
2019/08/19 05:14:14;;;;;;;4.3;3.65;;;;;;;17.33;100;95318.36;;;;
2019/08/19 05:15:15;;;;;;;4.3;3.65;;;;;;;17.33;100;95318.36;;;;
2019/08/19 05:16:16;;;;;;;4.3;3.65;;;;;;;17.33;100;95318.36;;;;
2019/08/19 05:17:18;;;;;;;4.3;3.65;;;;;;;17.33;100;95318.36;;;;
2019/08/19 05:18:19;;;;;;;4.3;3.65;;;;;;;17.33;100;95318.36;;;;
2019/08/19 05:19:20;;;;;;;4.400001;3.55;;;;;;;17.35;100;95322.17;;;;
2019/08/19 05:20:21;;;;;;;4.400001;3.55;;;;;;;17.35;100;95322.17;;;;
2019/08/19 05:21:22;;;;;;;4.400001;3.55;;;;;;;17.35;100;95322.17;;;;
2019/08/19 05:22:23;;;;;;;4.400001;3.55;;;;;;;17.35;100;95322.17;;;;
2019/08/19 05:23:25;;;;;;;4.400001;3.55;;;;;;;17.35;100;95322.17;;;;
2019/08/19 05:24:26;;;;;;;4.400001;3.55;;;;;;;17.35;100;95322.17;;;;
2019/08/19 05:25:27;;;;;;;4.400001;3.55;;;;;;;17.35;100;95322.17;;;;
2019/08/19 05:26:28;;;;;;;4.400001;3.55;;;;;;;17.35;100;95322.17;;;;
2019/08/19 05:27:29;;;;;;;4.400001;3.55;;;;;;;17.35;100;95322.17;;;;
2019/08/19 05:28:30;;;;;;;4.400001;3.55;;;;;;;17.35;100;95322.17;;;;
2019/08/19 05:29:31;;;;;;;4.400001;3.55;;;;;;;17.35;100;95322.17;;;;
2019/08/19 05:30:33;;;;;;;5.449999;3.45;;;;;;;17.42;100;95307.15;;;;
2019/08/19 05:31:34;;;;;;;5.449999;3.45;;;;;;;17.42;100;95307.15;;;;
2019/08/19 05:32:35;;;;;;;5.449999;3.45;;;;;;;17.42;100;95307.15;;;;
2019/08/19 05:33:36;;;;;;;5.449999;3.45;;;;;;;17.42;100;95307.15;;;;
2019/08/19 05:34:37;;;;;;;5.449999;3.45;;;;;;;17.42;100;95307.15;;;;
2019/08/19 05:35:38;;;;;;;5.449999;3.45;;;;;;;17.42;100;95307.15;;;;
2019/08/19 05:36:40;;;;;;;5.449999;3.45;;;;;;;17.42;100;95307.15;;;;
2019/08/19 05:37:41;;;;;;;5.449999;3.45;;;;;;;17.42;100;95307.15;;;;
2019/08/19 05:38:42;;;;;;;5.449999;3.45;;;;;;;17.42;100;95307.15;;;;
2019/08/19 05:39:43;;;;;;;5.449999;3.45;;;;;;;17.42;100;95307.15;;;;
2019/08/19 05:40:44;;;;;;;5.550002;3.9;;;;;;;17.45;100;95300.71;;;;
2019/08/19 05:41:46;;;;;;;5.550002;3.9;;;;;;;17.45;100;95300.71;;;;
2019/08/19 05:42:47;;;;;;;5.550002;3.9;;;;;;;17.45;100;95300.71;;;;
2019/08/19 05:43:48;;;;;;;5.550002;3.9;;;;;;;17.45;100;95300.71;;;;
2019/08/19 05:44:49;;;;;;;5.550002;3.9;;;;;;;17.45;100;95300.71;;;;
2019/08/19 05:45:50;;;;;;;5.550002;3.9;;;;;;;17.45;100;95300.71;;;;
2019/08/19 05:46:51;;;;;;;5.550002;3.9;;;;;;;17.45;100;95300.71;;;;
2019/08/19 05:47:52;;;;;;;5.550002;3.9;;;;;;;17.45;100;95300.71;;;;
2019/08/19 05:48:53;;;;;;;5.550002;3.9;;;;;;;17.45;100;95300.71;;;;
2019/08/19 05:49:55;;;;;;;5.550002;3.9;;;;;;;17.45;100;95300.71;;;;
2019/08/19 05:50:56;;;;;;;5.550002;3.9;;;;;;;17.45;100;95300.71;;;;
2019/08/19 05:51:57;;;;;;;4.400001;3.55;;;;;;;17.54;100;95302.75;;;;
2019/08/19 05:52:58;;;;;;;4.400001;3.55;;;;;;;17.54;100;95302.75;;;;
2019/08/19 05:53:59;;;;;;;4.400001;3.55;;;;;;;17.54;100;95302.75;;;;
2019/08/19 05:55:00;;;;;;;4.400001;3.55;;;;;;;17.54;100;95302.75;;;;
2019/08/19 05:56:01;;;;;;;4.400001;3.55;;;;;;;17.54;100;95302.75;;;;
2019/08/19 05:57:03;;;;;;;4.400001;3.55;;;;;;;17.54;100;95302.75;;;;
2019/08/19 05:58:04;;;;;;;4.400001;3.55;;;;;;;17.54;100;95302.75;;;;
2019/08/19 05:59:05;;;;;;;4.400001;3.55;;;;;;;17.54;100;95302.75;;;;
2019/08/19 06:00:06;;;;;;;4.400001;3.55;;;;;;;17.54;100;95302.75;;;;
2019/08/19 06:01:08;;;;;;;4.400001;3.55;;;;;;;17.54;100;95302.75;;;;